Time;durP1;ratioP1;P1;durP2;ratioP2;P2;SDS_P1;SDS_P2;PMS_P1;PMS_P2;Temp;Humidity;BMP_temperature;BMP_pressure;BME280_temperature;BME280_humidity;BME280_pressure;Samples;Min_cycle;Max_cycle;Signal;HPM_P1;HPM_P2
2021/09/26 00:00:00;;;;;;;8.73;6.60;;;17.20;77.40;;;;;;5058308;28;20033;-39
2021/09/26 00:02:26;;;;;;;10.48;6.22;;;17.20;77.40;;;;;;5058513;28;20037;-37
2021/09/26 00:04:52;;;;;;;9.88;6.30;;;17.20;77.40;;;;;;5058438;28;20020;-39
2021/09/26 00:07:18;;;;;;;8.07;6.00;;;17.20;77.40;;;;;;5057927;28;20029;-39
2021/09/26 00:09:44;;;;;;;13.15;6.43;;;17.20;77.50;;;;;;5058065;28;20036;-40
2021/09/26 00:12:10;;;;;;;9.75;6.30;;;17.20;77.50;;;;;;5057872;28;20051;-37
2021/09/26 00:14:36;;;;;;;9.27;5.85;;;17.20;77.50;;;;;;5058230;28;20052;-39
2021/09/26 00:17:01;;;;;;;9.60;6.43;;;17.20;77.50;;;;;;5057954;28;20025;-40
2021/09/26 00:19:27;;;;;;;8.38;5.78;;;17.20;77.50;;;;;;5058337;28;20037;-36
2021/09/26 00:21:53;;;;;;;9.07;6.15;;;17.20;77.50;;;;;;5057818;28;20029;-38
2021/09/26 00:24:20;;;;;;;8.13;6.18;;;17.20;77.60;;;;;;5058464;28;20131;-36
2021/09/26 00:26:45;;;;;;;10.23;7.03;;;17.20;77.50;;;;;;5057619;28;20187;-36
2021/09/26 00:29:11;;;;;;;9.90;5.80;;;17.30;77.70;;;;;;5058273;28;20120;-36
2021/09/26 00:31:37;;;;;;;11.60;6.53;;;17.30;77.70;;;;;;5057785;28;20029;-37
2021/09/26 00:34:02;;;;;;;8.30;6.00;;;17.20;77.60;;;;;;5057327;28;20037;-36
2021/09/26 00:36:28;;;;;;;9.45;6.57;;;17.20;77.70;;;;;;5057903;28;20127;-38
2021/09/26 00:38:53;;;;;;;7.80;6.25;;;17.20;77.70;;;;;;5058008;28;20099;-39
2021/09/26 00:41:19;;;;;;;10.23;6.35;;;17.20;77.80;;;;;;5057331;28;20100;-38
2021/09/26 00:43:45;;;;;;;7.55;5.90;;;17.20;77.90;;;;;;5058029;28;20037;-37
2021/09/26 00:46:11;;;;;;;10.43;6.00;;;17.20;77.90;;;;;;5057719;28;20029;-37
2021/09/26 00:48:36;;;;;;;12.07;6.00;;;17.20;77.90;;;;;;5057858;28;20613;-36
2021/09/26 00:51:09;;;;;;;8.30;6.00;;;17.20;78.00;;;;;;5057180;28;20140;-39
2021/09/26 00:53:35;;;;;;;9.50;5.70;;;17.20;78.10;;;;;;5057261;28;20103;-39
2021/09/26 00:56:01;;;;;;;8.05;6.22;;;17.20;78.20;;;;;;5056978;28;20117;-42
2021/09/26 00:58:29;;;;;;;7.90;6.38;;;17.20;78.10;;;;;;5057732;28;20055;-36
2021/09/26 01:00:55;;;;;;;11.05;6.78;;;17.20;78.10;;;;;;5056995;28;20059;-40
2021/09/26 01:03:20;;;;;;;10.48;6.30;;;17.20;78.10;;;;;;5057372;28;20033;-36
2021/09/26 01:05:55;;;;;;;8.65;5.85;;;17.20;78.00;;;;;;5056946;28;20041;-39
2021/09/26 01:08:40;;;;;;;9.73;5.90;;;17.20;78.00;;;;;;5057532;28;20029;-36
2021/09/26 01:11:10;;;;;;;8.70;6.07;;;17.20;78.00;;;;;;5056859;28;20029;-39
2021/09/26 01:13:58;;;;;;;8.38;6.05;;;17.20;78.10;;;;;;5057290;28;20036;-40
2021/09/26 01:16:40;;;;;;;8.65;6.18;;;17.20;77.90;;;;;;5056822;28;20048;-36
2021/09/26 01:19:46;;;;;;;12.05;5.90;;;17.10;77.90;;;;;;5057455;28;20036;-39
2021/09/26 01:22:18;;;;;;;9.65;6.15;;;17.10;77.80;;;;;;5056270;28;20098;-41
2021/09/26 01:25:07;;;;;;;10.80;6.18;;;17.10;77.90;;;;;;5056573;28;20059;-40
2021/09/26 01:27:42;;;;;;;8.90;5.50;;;17.10;77.80;;;;;;5056662;28;20040;-40
2021/09/26 01:30:34;;;;;;;6.97;5.30;;;17.10;77.80;;;;;;5056676;28;20044;-36
2021/09/26 01:33:18;;;;;;;7.20;5.63;;;17.10;77.90;;;;;;5056739;28;20409;-36
2021/09/26 01:36:14;;;;;;;7.05;5.40;;;17.10;77.80;;;;;;5056266;28;20036;-36
2021/09/26 01:38:53;;;;;;;6.68;4.93;;;17.10;77.60;;;;;;5056881;28;20045;-39
2021/09/26 01:41:35;;;;;;;7.15;5.30;;;17.10;77.80;;;;;;5056651;28;20033;-36
2021/09/26 01:44:04;;;;;;;10.30;5.93;;;17.10;77.80;;;;;;5056721;28;20036;-40
2021/09/26 01:46:34;;;;;;;6.88;5.78;;;17.10;77.70;;;;;;5056246;28;20037;-38
2021/09/26 01:49:21;;;;;;;8.27;5.88;;;17.10;77.70;;;;;;5056760;28;20037;-36
2021/09/26 01:51:48;;;;;;;8.20;5.50;;;17.10;77.50;;;;;;5056263;28;20232;-41
2021/09/26 01:54:16;;;;;;;7.65;5.30;;;17.10;77.70;;;;;;5055609;28;20053;-41
2021/09/26 01:56:43;;;;;;;9.13;4.97;;;17.00;77.60;;;;;;5056049;28;20033;-36
2021/09/26 01:59:12;;;;;;;11.43;5.45;;;17.00;77.50;;;;;;5056316;28;20025;-36
2021/09/26 02:01:40;;;;;;;7.47;5.55;;;17.00;77.60;;;;;;5055736;28;20041;-39
2021/09/26 02:04:06;;;;;;;5.68;4.72;;;17.00;77.60;;;;;;5056056;28;20037;-39
2021/09/26 02:06:38;;;;;;;7.82;5.40;;;17.00;77.60;;;;;;5055869;28;20039;-37
2021/09/26 02:09:06;;;;;;;9.38;5.05;;;17.00;77.70;;;;;;5056357;28;20037;-36
2021/09/26 02:11:33;;;;;;;6.13;4.80;;;17.00;77.70;;;;;;5056019;28;20068;-37
2021/09/26 02:14:00;;;;;;;7.32;4.68;;;17.00;77.70;;;;;;5055885;28;20029;-36
2021/09/26 02:16:27;;;;;;;8.18;5.15;;;17.00;77.80;;;;;;5055779;28;20025;-37
2021/09/26 02:18:54;;;;;;;6.72;4.80;;;17.00;77.80;;;;;;5056243;28;20431;-37
2021/09/26 02:21:21;;;;;;;6.50;5.22;;;17.00;77.90;;;;;;5055428;28;20055;-37
2021/09/26 02:23:49;;;;;;;10.38;4.95;;;17.00;78.00;;;;;;5055920;28;20091;-36
2021/09/26 02:26:15;;;;;;;6.22;4.70;;;17.00;78.10;;;;;;5055826;28;20029;-37
2021/09/26 02:28:41;;;;;;;7.88;4.95;;;17.00;78.10;;;;;;5055922;28;20039;-39
2021/09/26 02:31:08;;;;;;;7.60;5.15;;;16.90;78.10;;;;;;5055592;28;20075;-40
2021/09/26 02:33:38;;;;;;;8.95;4.70;;;17.00;78.30;;;;;;5055944;28;20651;-39
2021/09/26 02:36:05;;;;;;;6.10;4.95;;;16.90;78.30;;;;;;5055227;28;20082;-40
2021/09/26 02:38:32;;;;;;;9.48;5.03;;;16.90;78.30;;;;;;5055863;28;20302;-37
2021/09/26 02:41:17;;;;;;;10.45;5.18;;;16.90;78.30;;;;;;5055122;28;20025;-41
2021/09/26 02:44:00;;;;;;;7.13;5.03;;;17.00;78.50;;;;;;5055814;28;20021;-40
2021/09/26 02:46:37;;;;;;;6.95;4.88;;;16.90;78.50;;;;;;5055321;28;20033;-39
2021/09/26 02:49:04;;;;;;;8.30;5.28;;;16.90;78.60;;;;;;5055592;28;20132;-36
2021/09/26 02:51:30;;;;;;;9.95;5.85;;;16.90;78.70;;;;;;5055141;28;20468;-41
2021/09/26 02:53:58;;;;;;;8.95;5.05;;;16.80;78.80;;;;;;5054932;28;20068;-36
2021/09/26 02:56:25;;;;;;;10.52;4.85;;;16.80;78.80;;;;;;5055458;28;20309;-37
2021/09/26 02:58:54;;;;;;;7.80;5.10;;;16.80;78.80;;;;;;5055586;28;20033;-39
2021/09/26 03:01:20;;;;;;;6.43;5.18;;;16.80;78.90;;;;;;5055523;28;20424;-40
2021/09/26 03:03:46;;;;;;;6.72;4.97;;;16.80;78.90;;;;;;5055438;28;20044;-39
2021/09/26 03:06:11;;;;;;;8.30;5.68;;;16.70;78.90;;;;;;5055191;28;20029;-40
2021/09/26 03:08:37;;;;;;;8.32;5.10;;;16.70;79.00;;;;;;5055704;28;20421;-39
2021/09/26 03:11:03;;;;;;;11.52;5.75;;;16.70;79.10;;;;;;5055163;28;20154;-40
2021/09/26 03:13:29;;;;;;;7.65;5.47;;;16.70;79.20;;;;;;5055562;28;20041;-39
2021/09/26 03:15:55;;;;;;;11.05;5.53;;;16.70;79.20;;;;;;5058209;28;20025;-39
2021/09/26 03:18:21;;;;;;;7.30;5.05;;;16.60;79.20;;;;;;5059590;28;20033;-41
2021/09/26 03:20:47;;;;;;;7.25;5.40;;;16.60;79.20;;;;;;5059072;28;20459;-41
2021/09/26 03:23:13;;;;;;;14.13;5.20;;;16.60;79.30;;;;;;5059505;28;20032;-36
2021/09/26 03:25:38;;;;;;;8.13;5.28;;;16.60;79.30;;;;;;5058670;28;20028;-36
2021/09/26 03:28:04;;;;;;;8.90;5.30;;;16.50;79.40;;;;;;5059034;28;20123;-39
2021/09/26 03:30:30;;;;;;;8.88;5.35;;;16.50;79.50;;;;;;5058911;28;20040;-41
2021/09/26 03:32:56;;;;;;;7.03;5.03;;;16.50;79.50;;;;;;5058527;28;20406;-39
2021/09/26 03:35:21;;;;;;;13.20;5.35;;;16.50;79.60;;;;;;5058458;28;20021;-40
2021/09/26 03:37:47;;;;;;;10.00;5.65;;;16.40;79.80;;;;;;5058577;28;20041;-36
2021/09/26 03:40:14;;;;;;;9.02;5.28;;;16.40;79.80;;;;;;5058437;28;20021;-36
2021/09/26 03:42:41;;;;;;;6.10;5.10;;;16.40;79.90;;;;;;5058727;28;20029;-36
2021/09/26 03:45:08;;;;;;;7.45;5.50;;;16.40;79.90;;;;;;5058494;28;20362;-41
2021/09/26 03:47:34;;;;;;;7.50;4.50;;;16.40;80.00;;;;;;5058397;28;20112;-40
2021/09/26 03:50:00;;;;;;;14.05;5.63;;;16.40;80.00;;;;;;5058610;28;20033;-36
2021/09/26 03:52:26;;;;;;;7.47;5.22;;;16.40;80.00;;;;;;5058385;28;20059;-37
2021/09/26 03:54:52;;;;;;;7.20;5.18;;;16.30;79.90;;;;;;5058198;28;20021;-40
2021/09/26 03:57:18;;;;;;;9.93;5.80;;;16.30;80.00;;;;;;5058281;28;20074;-36
2021/09/26 03:59:44;;;;;;;9.25;5.40;;;16.30;80.00;;;;;;5058588;28;20352;-36
2021/09/26 04:02:10;;;;;;;8.98;5.47;;;16.30;80.10;;;;;;5058366;28;20032;-37
2021/09/26 04:04:36;;;;;;;9.90;6.22;;;16.20;80.10;;;;;;5058143;28;20032;-36
2021/09/26 04:07:02;;;;;;;11.88;5.80;;;16.30;80.30;;;;;;5057957;28;20298;-41
2021/09/26 04:09:27;;;;;;;10.82;5.75;;;16.20;80.30;;;;;;5058617;28;20021;-40
2021/09/26 04:11:53;;;;;;;11.55;5.63;;;16.20;80.40;;;;;;5058011;28;20021;-41
2021/09/26 04:14:19;;;;;;;10.35;5.93;;;16.20;80.50;;;;;;5058246;28;20036;-41
2021/09/26 04:16:46;;;;;;;7.22;5.05;;;16.20;80.60;;;;;;5058058;28;20029;-36
2021/09/26 04:19:11;;;;;;;13.93;7.97;;;16.20;80.70;;;;;;5058191;28;20029;-40
2021/09/26 04:21:37;;;;;;;10.65;5.88;;;16.20;80.80;;;;;;5057838;28;20036;-37
2021/09/26 04:24:03;;;;;;;10.45;5.55;;;16.20;80.90;;;;;;5058119;28;20115;-40
2021/09/26 04:26:28;;;;;;;8.60;5.55;;;16.20;80.90;;;;;;5057590;28;20068;-37
2021/09/26 04:28:54;;;;;;;7.45;5.70;;;16.20;80.90;;;;;;5058006;28;20112;-40
2021/09/26 04:31:20;;;;;;;7.15;5.25;;;16.20;81.00;;;;;;5057796;28;20142;-40
2021/09/26 04:33:45;;;;;;;11.38;5.70;;;16.20;81.00;;;;;;5057689;28;20112;-37
2021/09/26 04:36:11;;;;;;;9.00;5.70;;;16.20;81.60;;;;;;5057089;28;20036;-40
2021/09/26 04:38:37;;;;;;;60.47;42.92;;;16.20;81.20;;;;;;5058054;28;20025;-40
2021/09/26 04:41:03;;;;;;;12.20;6.13;;;16.20;81.40;;;;;;5057205;28;20032;-40
2021/09/26 04:43:28;;;;;;;10.43;6.00;;;16.20;81.30;;;;;;5057522;28;20112;-41
2021/09/26 04:45:54;;;;;;;10.10;5.78;;;16.20;81.20;;;;;;5057050;28;20032;-37
2021/09/26 04:48:19;;;;;;;9.65;5.50;;;16.20;81.20;;;;;;5057543;28;20033;-40
2021/09/26 04:50:48;;;;;;;9.02;5.60;;;16.20;81.20;;;;;;5056810;28;20380;-40
2021/09/26 04:53:14;;;;;;;9.60;5.60;;;16.20;81.20;;;;;;5057105;28;20045;-38
2021/09/26 04:55:41;;;;;;;7.03;5.00;;;16.20;81.20;;;;;;5056972;28;20112;-36
2021/09/26 04:58:06;;;;;;;10.60;5.80;;;16.20;81.30;;;;;;5057556;28;20316;-37
2021/09/26 05:00:34;;;;;;;10.77;6.28;;;16.20;81.40;;;;;;5057503;28;20104;-40
2021/09/26 05:02:59;;;;;;;15.15;6.55;;;16.30;81.40;;;;;;5057057;28;20040;-37
2021/09/26 05:05:26;;;;;;;19.25;6.68;;;16.30;81.20;;;;;;5056802;28;20029;-36
2021/09/26 05:07:51;;;;;;;9.25;5.38;;;16.30;81.10;;;;;;5057042;28;20087;-41
2021/09/26 05:10:17;;;;;;;8.55;5.28;;;16.30;81.10;;;;;;5057352;28;20028;-37
2021/09/26 05:12:42;;;;;;;7.78;5.70;;;16.30;81.00;;;;;;5056876;28;20325;-39
2021/09/26 05:15:09;;;;;;;11.50;6.15;;;16.40;81.00;;;;;;5056809;28;20024;-39
2021/09/26 05:17:35;;;;;;;9.07;5.75;;;16.40;81.10;;;;;;5057124;28;20119;-36
2021/09/26 05:20:01;;;;;;;9.77;6.40;;;16.40;81.10;;;;;;5057252;28;20028;-40
2021/09/26 05:22:27;;;;;;;13.77;6.00;;;16.40;81.20;;;;;;5056581;28;20029;-36
2021/09/26 05:24:53;;;;;;;10.10;5.75;;;16.50;81.60;;;;;;5056516;28;20028;-36
2021/09/26 05:27:19;;;;;;;9.18;5.88;;;16.50;81.00;;;;;;5056544;28;20029;-40
2021/09/26 05:29:45;;;;;;;12.05;7.50;;;16.60;81.00;;;;;;5056792;28;20020;-36
2021/09/26 05:32:10;;;;;;;8.95;5.45;;;16.60;80.60;;;;;;5056645;28;20029;-42
2021/09/26 05:34:36;;;;;;;9.35;5.60;;;16.60;80.30;;;;;;5056279;28;20478;-36
2021/09/26 05:37:02;;;;;;;10.55;6.47;;;16.60;80.20;;;;;;5055505;28;20016;-36
2021/09/26 05:39:28;;;;;;;11.18;6.63;;;16.70;80.10;;;;;;5056762;28;20055;-39
2021/09/26 05:41:54;;;;;;;12.48;6.43;;;16.70;80.00;;;;;;5056114;28;20031;-40
2021/09/26 05:44:21;;;;;;;12.13;6.13;;;16.70;79.80;;;;;;5056772;28;20329;-37
2021/09/26 05:46:47;;;;;;;8.40;6.15;;;16.70;79.60;;;;;;5055879;28;20231;-36
2021/09/26 05:49:13;;;;;;;12.98;6.28;;;16.80;79.30;;;;;;5056573;28;20036;-36
2021/09/26 05:51:39;;;;;;;9.93;5.75;;;16.80;79.20;;;;;;5056130;28;20100;-41
2021/09/26 05:54:04;;;;;;;9.52;6.03;;;16.90;78.30;;;;;;5055540;28;20044;-36
2021/09/26 05:56:30;;;;;;;12.95;6.68;;;16.90;78.10;;;;;;5055663;28;20021;-42
2021/09/26 05:58:56;;;;;;;10.88;6.85;;;16.90;77.70;;;;;;5056279;28;20061;-40
2021/09/26 06:01:21;;;;;;;15.88;6.63;;;17.00;77.50;;;;;;5055654;28;20476;-41
2021/09/26 06:03:47;;;;;;;10.60;6.05;;;17.00;77.20;;;;;;5056081;28;20166;-38
2021/09/26 06:06:13;;;;;;;12.90;5.88;;;17.00;77.00;;;;;;5055919;28;20021;-41
2021/09/26 06:08:39;;;;;;;13.75;6.65;;;17.00;77.00;;;;;;5055791;28;20336;-42
2021/09/26 06:11:05;;;;;;;8.18;5.90;;;17.10;77.10;;;;;;5055922;28;20112;-37
2021/09/26 06:13:31;;;;;;;8.70;6.20;;;17.10;76.50;;;;;;5055908;28;20041;-42
2021/09/26 06:15:59;;;;;;;10.65;5.70;;;17.20;76.50;;;;;;5055080;28;20017;-41
2021/09/26 06:18:24;;;;;;;11.02;5.93;;;17.20;75.60;;;;;;5055791;28;20363;-42
2021/09/26 06:20:50;;;;;;;11.32;5.55;;;17.20;75.70;;;;;;5055429;28;20025;-41
2021/09/26 06:23:16;;;;;;;9.88;5.78;;;17.30;75.70;;;;;;5055788;28;20036;-37
2021/09/26 06:25:41;;;;;;;14.45;6.10;;;17.30;75.30;;;;;;5055066;28;20082;-37
2021/09/26 06:28:07;;;;;;;12.15;5.90;;;17.30;75.30;;;;;;5055771;28;20068;-42
2021/09/26 06:30:35;;;;;;;10.20;5.78;;;17.40;75.40;;;;;;5055444;28;20033;-37
2021/09/26 06:33:00;;;;;;;9.93;5.68;;;17.40;75.00;;;;;;5055349;28;20037;-41
2021/09/26 06:35:26;;;;;;;10.00;5.53;;;17.40;74.50;;;;;;5055073;28;20021;-37
2021/09/26 06:37:54;;;;;;;19.02;6.32;;;17.50;73.80;;;;;;5055513;28;20044;-37
2021/09/26 06:40:20;;;;;;;10.98;5.10;;;17.50;73.80;;;;;;5055682;28;20400;-38
2021/09/26 06:42:46;;;;;;;10.93;5.75;;;17.50;73.20;;;;;;5055115;28;20074;-41
2021/09/26 06:45:11;;;;;;;9.52;4.65;;;17.50;73.30;;;;;;5054922;28;20108;-37
2021/09/26 06:47:37;;;;;;;11.38;4.85;;;17.50;72.40;;;;;;5055122;28;20037;-37
2021/09/26 06:50:04;;;;;;;10.95;4.63;;;17.60;72.00;;;;;;5055017;28;20078;-36
2021/09/26 06:52:29;;;;;;;9.65;4.28;;;17.60;71.50;;;;;;5054788;28;20041;-36
2021/09/26 06:54:55;;;;;;;10.77;4.22;;;17.60;71.30;;;;;;5054916;28;20051;-39
2021/09/26 06:57:21;;;;;;;11.02;4.82;;;17.60;71.10;;;;;;5055116;28;20029;-40
2021/09/26 06:59:47;;;;;;;7.32;4.20;;;17.70;71.10;;;;;;5055150;28;20486;-39
2021/09/26 07:02:17;;;;;;;12.15;5.28;;;17.70;70.80;;;;;;5054771;28;20460;-37
2021/09/26 07:04:43;;;;;;;12.50;4.70;;;17.70;70.60;;;;;;5054640;28;20049;-36
2021/09/26 07:07:09;;;;;;;9.25;3.95;;;17.70;69.70;;;;;;5054475;28;20036;-37
2021/09/26 07:09:34;;;;;;;11.57;4.78;;;17.80;69.00;;;;;;5054752;28;20116;-38
2021/09/26 07:12:00;;;;;;;11.52;4.70;;;17.80;69.30;;;;;;5054644;28;20036;-38
2021/09/26 07:14:26;;;;;;;8.45;4.07;;;17.80;69.30;;;;;;5055053;28;20397;-36
2021/09/26 07:16:52;;;;;;;10.30;4.53;;;17.80;69.50;;;;;;5054847;28;20029;-37
2021/09/26 07:19:18;;;;;;;12.75;4.70;;;17.80;69.30;;;;;;5055104;28;20282;-40
2021/09/26 07:21:43;;;;;;;12.98;4.55;;;17.90;69.20;;;;;;5054660;28;20417;-40
2021/09/26 07:24:09;;;;;;;10.27;3.90;;;17.90;68.50;;;;;;5055154;28;20335;-37
2021/09/26 07:26:35;;;;;;;10.73;4.57;;;17.90;68.00;;;;;;5054898;28;20039;-37
2021/09/26 07:29:01;;;;;;;10.82;4.50;;;18.00;68.30;;;;;;5055046;28;20345;-40
2021/09/26 07:31:27;;;;;;;7.43;3.45;;;18.00;68.00;;;;;;5054490;28;20045;-36
2021/09/26 07:33:53;;;;;;;10.43;3.42;;;18.00;67.70;;;;;;5053980;28;20033;-37
2021/09/26 07:36:18;;;;;;;9.40;5.00;;;18.00;67.30;;;;;;5054613;28;20025;-37
2021/09/26 07:38:44;;;;;;;10.55;4.25;;;18.10;67.40;;;;;;5055042;28;20128;-37
2021/09/26 07:41:10;;;;;;;13.18;4.43;;;18.10;67.60;;;;;;5054608;28;20027;-37
2021/09/26 07:43:36;;;;;;;10.05;3.92;;;18.10;67.30;;;;;;5055042;28;20063;-40
2021/09/26 07:46:02;;;;;;;9.60;4.00;;;18.10;66.80;;;;;;5054637;28;20041;-41
2021/09/26 07:48:27;;;;;;;12.90;4.40;;;18.10;66.80;;;;;;5054825;28;20037;-36
2021/09/26 07:50:53;;;;;;;12.85;3.92;;;18.10;66.80;;;;;;5054485;28;20029;-41
2021/09/26 07:53:19;;;;;;;8.27;4.25;;;18.10;66.70;;;;;;5054644;28;20051;-39
2021/09/26 07:55:48;;;;;;;7.00;3.72;;;18.00;66.60;;;;;;5054331;28;20051;-38
2021/09/26 07:58:14;;;;;;;8.77;4.20;;;18.00;66.20;;;;;;5054996;28;20045;-36
2021/09/26 08:00:40;;;;;;;7.25;3.72;;;18.10;65.70;;;;;;5055138;28;20024;-37
2021/09/26 08:03:06;;;;;;;10.45;3.80;;;18.10;66.00;;;;;;5058104;28;20045;-37
2021/09/26 08:05:31;;;;;;;10.43;3.92;;;18.10;66.00;;;;;;5057990;28;20033;-41
2021/09/26 08:07:57;;;;;;;12.20;4.22;;;18.10;66.20;;;;;;5058342;28;20098;-37
2021/09/26 08:10:22;;;;;;;9.82;4.07;;;18.10;65.30;;;;;;5058133;28;20025;-38
2021/09/26 08:12:48;;;;;;;13.07;4.38;;;18.10;65.30;;;;;;5057868;28;20118;-36
2021/09/26 08:15:14;;;;;;;9.07;4.45;;;18.10;64.70;;;;;;5057719;28;20079;-36
2021/09/26 08:17:39;;;;;;;11.90;5.35;;;18.10;64.80;;;;;;5057690;28;20163;-40
2021/09/26 08:20:06;;;;;;;8.45;3.83;;;18.10;63.90;;;;;;5057682;28;20056;-36
2021/09/26 08:22:32;;;;;;;11.32;4.30;;;18.10;64.10;;;;;;5057641;28;20029;-41
2021/09/26 08:25:00;;;;;;;9.75;4.00;;;18.20;64.20;;;;;;5057915;28;20033;-37
2021/09/26 08:27:26;;;;;;;8.35;4.53;;;18.20;64.00;;;;;;5057832;28;20043;-37
2021/09/26 08:29:51;;;;;;;14.38;4.60;;;18.30;63.50;;;;;;5057546;28;20029;-40
2021/09/26 08:32:17;;;;;;;9.20;3.85;;;18.30;63.00;;;;;;5057701;28;20029;-37
2021/09/26 08:34:43;;;;;;;9.63;4.05;;;18.40;62.90;;;;;;5057680;28;20074;-40
2021/09/26 08:37:08;;;;;;;8.95;3.53;;;18.50;62.40;;;;;;5057318;28;20440;-41
2021/09/26 08:39:34;;;;;;;13.05;4.05;;;18.50;62.00;;;;;;5057630;28;20025;-41
2021/09/26 08:42:00;;;;;;;11.23;3.97;;;18.60;61.40;;;;;;5056278;28;20029;-41
2021/09/26 08:44:28;;;;;;;8.43;3.70;;;18.60;61.20;;;;;;5057832;28;20060;-41
2021/09/26 08:46:55;;;;;;;10.18;3.60;;;18.70;61.20;;;;;;5057537;28;20363;-41
2021/09/26 08:49:22;;;;;;;11.27;3.97;;;18.80;61.10;;;;;;5057631;28;20040;-37
2021/09/26 08:51:49;;;;;;;11.23;3.92;;;18.80;60.90;;;;;;5057034;28;20032;-37
2021/09/26 08:54:16;;;;;;;11.25;3.95;;;18.80;60.30;;;;;;5056824;28;20037;-37
2021/09/26 08:56:42;;;;;;;11.07;4.07;;;18.80;59.70;;;;;;5056986;28;20013;-37
2021/09/26 08:59:12;;;;;;;10.73;4.47;;;18.80;59.50;;;;;;5057162;28;20424;-37
2021/09/26 09:01:38;;;;;;;14.35;4.15;;;18.80;59.80;;;;;;5056662;28;20029;-37
2021/09/26 09:04:04;;;;;;;9.32;3.72;;;18.80;60.20;;;;;;5057366;28;20045;-37
2021/09/26 09:06:47;;;;;;;9.88;3.22;;;18.80;59.60;;;;;;5056685;28;20410;-37
2021/09/26 09:09:15;;;;;;;7.45;3.25;;;18.80;59.40;;;;;;5057031;28;20132;-37
2021/09/26 09:11:58;;;;;;;10.60;3.83;;;18.80;59.70;;;;;;5057006;28;20033;-41
2021/09/26 09:14:24;;;;;;;8.30;4.18;;;18.90;59.90;;;;;;5057021;28;20041;-41
2021/09/26 09:16:54;;;;;;;11.00;3.47;;;19.00;59.70;;;;;;5056444;28;20040;-37
2021/09/26 09:19:22;;;;;;;9.37;3.37;;;19.00;59.30;;;;;;5057049;28;20025;-37
2021/09/26 09:22:04;;;;;;;12.30;4.30;;;19.00;59.40;;;;;;5056644;28;20272;-40
2021/09/26 09:24:38;;;;;;;14.00;7.60;;;19.10;59.70;;;;;;5056947;28;20040;-37
2021/09/26 09:27:03;;;;;;;10.02;3.67;;;19.20;60.00;;;;;;5056696;28;20083;-39
2021/09/26 09:29:29;;;;;;;9.77;4.15;;;19.20;58.40;;;;;;5056420;28;20052;-41
2021/09/26 09:31:58;;;;;;;11.23;5.78;;;19.20;58.10;;;;;;5056518;28;20024;-40
2021/09/26 09:34:32;;;;;;;9.88;4.40;;;19.30;58.30;;;;;;5056472;28;20068;-41
2021/09/26 09:37:29;;;;;;;11.50;3.45;;;19.40;57.90;;;;;;5056186;28;20021;-37
2021/09/26 09:40:15;;;;;;;10.50;3.63;;;19.40;57.90;;;;;;5055903;28;20045;-40
2021/09/26 09:42:45;;;;;;;14.57;7.18;;;19.40;57.90;;;;;;5055954;28;20032;-40
2021/09/26 09:45:26;;;;;;;9.50;3.50;;;19.30;58.20;;;;;;5056453;28;20039;-40
2021/09/26 09:47:54;;;;;;;11.80;3.42;;;19.40;57.90;;;;;;5056205;28;20033;-36
2021/09/26 09:50:20;;;;;;;11.50;3.83;;;19.40;57.00;;;;;;5055812;28;20032;-36
2021/09/26 09:52:52;;;;;;;9.30;3.92;;;19.40;56.50;;;;;;5055738;28;20124;-36
2021/09/26 09:55:18;;;;;;;6.85;2.97;;;19.40;56.10;;;;;;5056087;28;20370;-36
2021/09/26 09:57:44;;;;;;;11.93;4.15;;;19.40;56.10;;;;;;5055920;28;20067;-37
2021/09/26 10:00:19;;;;;;;11.68;3.75;;;19.40;56.10;;;;;;5055768;28;20401;-36
2021/09/26 10:02:45;;;;;;;10.95;3.17;;;19.40;55.40;;;;;;5055923;28;20064;-36
2021/09/26 10:05:32;;;;;;;7.32;3.42;;;19.40;55.10;;;;;;5056092;28;20443;-41
2021/09/26 10:07:58;;;;;;;10.98;3.60;;;19.40;55.00;;;;;;5055977;28;20036;-40
2021/09/26 10:10:33;;;;;;;10.27;3.70;;;19.40;55.10;;;;;;5055831;28;20021;-41
2021/09/26 10:13:12;;;;;;;11.70;4.15;;;19.30;55.00;;;;;;5056008;28;20029;-37
2021/09/26 10:15:39;;;;;;;9.27;3.17;;;19.30;55.10;;;;;;5055395;28;20032;-37
2021/09/26 10:18:04;;;;;;;9.82;3.20;;;19.30;55.30;;;;;;5055836;28;20274;-40
2021/09/26 10:20:31;;;;;;;9.27;4.10;;;19.30;55.10;;;;;;5055566;28;20021;-41
2021/09/26 10:22:57;;;;;;;11.23;4.53;;;19.40;55.50;;;;;;5055344;28;20044;-37
2021/09/26 10:25:24;;;;;;;9.07;3.33;;;19.40;55.30;;;;;;5055241;28;20021;-41
2021/09/26 10:27:52;;;;;;;10.82;4.15;;;19.50;54.80;;;;;;5055471;28;20028;-37
2021/09/26 10:30:18;;;;;;;10.63;4.90;;;19.50;55.00;;;;;;5055393;28;20435;-40
2021/09/26 10:32:45;;;;;;;10.73;4.35;;;19.50;55.10;;;;;;5055173;28;20368;-41
2021/09/26 10:35:11;;;;;;;9.93;3.40;;;19.60;54.90;;;;;;5055588;28;20025;-38
2021/09/26 10:37:40;;;;;;;7.82;3.83;;;19.60;54.80;;;;;;5055550;28;20037;-41
2021/09/26 10:40:07;;;;;;;9.23;4.72;;;19.70;54.00;;;;;;5054898;28;20394;-42
2021/09/26 10:42:37;;;;;;;9.20;3.50;;;19.80;54.20;;;;;;5055454;28;20081;-41
2021/09/26 10:45:05;;;;;;;8.23;3.55;;;19.80;53.60;;;;;;5055382;28;20032;-41
2021/09/26 10:47:34;;;;;;;10.85;3.42;;;19.90;54.00;;;;;;5050721;28;20029;-36
2021/09/26 10:50:13;;;;;;;7.35;3.97;;;19.90;54.40;;;;;;5055213;28;20033;-40
2021/09/26 10:52:44;;;;;;;9.68;3.75;;;20.00;55.20;;;;;;5054620;28;20041;-41
2021/09/26 10:55:15;;;;;;;11.77;4.43;;;20.10;55.50;;;;;;5055478;28;20290;-40
2021/09/26 10:57:46;;;;;;;9.75;3.10;;;20.10;55.20;;;;;;5054785;28;20083;-39
2021/09/26 11:00:36;;;;;;;10.43;3.85;;;20.10;55.20;;;;;;5055188;28;20407;-38
2021/09/26 11:03:17;;;;;;;10.38;3.33;;;20.10;54.60;;;;;;5054798;28;20041;-36
2021/09/26 11:05:44;;;;;;;11.93;4.05;;;20.10;54.90;;;;;;5054528;28;20029;-41
2021/09/26 11:08:14;;;;;;;7.57;3.30;;;20.10;54.50;;;;;;5055030;28;20068;-36
2021/09/26 11:10:48;;;;;;;9.47;3.33;;;20.20;54.20;;;;;;5054574;28;20025;-37
2021/09/26 11:13:22;;;;;;;11.38;5.47;;;20.20;54.60;;;;;;5055409;28;20456;-37
2021/09/26 11:16:18;;;;;;;7.72;3.40;;;20.20;54.50;;;;;;5054055;28;20024;-37
2021/09/26 11:18:43;;;;;;;7.57;3.90;;;20.30;54.10;;;;;;5054806;28;20048;-40
2021/09/26 11:21:29;;;;;;;11.60;4.35;;;20.40;54.40;;;;;;5054244;28;20025;-41
2021/09/26 11:23:59;;;;;;;9.73;4.13;;;20.50;53.90;;;;;;5055071;28;20116;-37
2021/09/26 11:26:25;;;;;;;8.18;2.83;;;20.60;53.00;;;;;;5054033;28;20036;-37
2021/09/26 11:28:59;;;;;;;9.45;3.80;;;20.80;53.10;;;;;;5054962;28;20041;-40
2021/09/26 11:31:41;;;;;;;11.32;3.30;;;20.80;52.60;;;;;;5054016;28;20417;-41
2021/09/26 11:34:07;;;;;;;8.63;3.13;;;21.00;52.20;;;;;;5054787;28;20426;-41
2021/09/26 11:36:33;;;;;;;11.55;4.65;;;21.00;52.40;;;;;;5056298;28;20026;-37
2021/09/26 11:39:27;;;;;;;10.68;3.95;;;21.00;52.60;;;;;;5058819;28;20420;-41
2021/09/26 11:41:52;;;;;;;8.20;3.97;;;21.10;53.00;;;;;;5057782;28;20099;-41
2021/09/26 11:44:18;;;;;;;8.02;3.10;;;21.20;53.20;;;;;;5058760;28;20060;-40
2021/09/26 11:46:52;;;;;;;13.57;3.15;;;21.30;52.90;;;;;;5058041;28;20432;-41
2021/09/26 11:49:19;;;;;;;18.90;9.20;;;21.40;52.20;;;;;;5058662;28;20041;-37
2021/09/26 11:51:45;;;;;;;11.90;5.88;;;21.60;52.30;;;;;;5057926;28;20039;-41
2021/09/26 11:54:11;;;;;;;17.08;7.53;;;21.70;52.00;;;;;;5058056;28;20056;-37
2021/09/26 11:56:41;;;;;;;10.18;3.90;;;21.90;51.30;;;;;;5057692;28;20034;-36
2021/09/26 11:59:16;;;;;;;9.07;3.72;;;22.00;49.20;;;;;;5058373;28;20037;-37
2021/09/26 12:01:43;;;;;;;11.73;4.90;;;22.10;49.30;;;;;;5057922;28;20333;-41
2021/09/26 12:04:12;;;;;;;8.85;3.50;;;22.20;50.00;;;;;;5058277;28;20060;-41
2021/09/26 12:06:44;;;;;;;5.43;2.80;;;22.40;49.60;;;;;;5057955;28;20033;-41
2021/09/26 12:09:11;;;;;;;7.40;3.47;;;22.50;49.30;;;;;;5058448;28;20374;-36
2021/09/26 12:11:48;;;;;;;9.43;3.83;;;22.50;48.90;;;;;;5057254;28;20029;-36
2021/09/26 12:14:21;;;;;;;10.50;3.70;;;22.70;48.60;;;;;;5058438;28;20041;-41
2021/09/26 12:16:47;;;;;;;7.20;3.00;;;22.80;48.90;;;;;;5057648;28;20025;-36
2021/09/26 12:19:13;;;;;;;9.60;3.42;;;22.80;48.40;;;;;;5058179;28;20317;-37
2021/09/26 12:21:38;;;;;;;9.75;3.88;;;22.90;48.50;;;;;;5057384;28;20108;-37
2021/09/26 12:24:07;;;;;;;11.63;3.83;;;23.00;48.40;;;;;;5057535;28;20060;-36
2021/09/26 12:26:36;;;;;;;9.52;3.53;;;23.20;47.80;;;;;;5057251;28;20036;-37
2021/09/26 12:29:12;;;;;;;9.70;3.20;;;23.30;47.70;;;;;;5057826;28;20029;-42
2021/09/26 12:31:41;;;;;;;9.40;3.30;;;23.50;47.70;;;;;;5057272;28;20068;-37
2021/09/26 12:34:09;;;;;;;10.63;3.67;;;23.70;47.70;;;;;;5057975;28;20607;-38
2021/09/26 12:36:41;;;;;;;8.55;3.78;;;23.90;47.20;;;;;;5057429;28;20025;-37
2021/09/26 12:39:16;;;;;;;10.13;3.70;;;24.10;46.70;;;;;;5057792;28;20036;-41
2021/09/26 12:41:52;;;;;;;8.25;3.70;;;24.20;46.10;;;;;;5057265;28;20025;-38
2021/09/26 12:44:33;;;;;;;10.15;3.95;;;24.40;45.40;;;;;;5057605;28;20118;-38
2021/09/26 12:47:10;;;;;;;10.90;3.83;;;24.40;45.10;;;;;;5056590;28;20032;-41
2021/09/26 12:49:39;;;;;;;13.15;4.10;;;24.40;45.00;;;;;;5057064;28;20037;-42